createdAt,value
2022-12-22T00:02:19.956Z,84.97
2022-12-22T00:05:07.106Z,81.78
2022-12-22T00:07:53.074Z,81.75
2022-12-22T00:10:38.335Z,78.13
2022-12-22T00:13:23.754Z,67.07
2022-12-22T00:16:09.128Z,77.30
2022-12-22T00:18:54.366Z,87.95
2022-12-22T00:21:39.682Z,73.50
2022-12-22T00:24:26.989Z,65.45
2022-12-22T00:27:12.136Z,73.50
2022-12-22T00:30:00.625Z,74.90
2022-12-22T00:32:56.674Z,68.68
2022-12-22T00:35:44.562Z,69.63
2022-12-22T00:38:40.122Z,71.55
2022-12-22T00:41:25.732Z,71.95
2022-12-22T00:44:10.943Z,79.93
2022-12-22T00:46:59.408Z,80.25
2022-12-22T00:49:46.997Z,69.57
2022-12-22T00:52:32.791Z,83.13
2022-12-22T00:55:18.308Z,63.70
2022-12-22T00:58:03.617Z,69.13
2022-12-22T01:00:49.161Z,73.95
2022-12-22T01:03:34.671Z,66.28
2022-12-22T01:06:21.273Z,68.43
2022-12-22T01:09:07.150Z,73.07
2022-12-22T01:11:53.561Z,63.10
2022-12-22T01:24:40.099Z,66.15
2022-12-22T01:27:27.844Z,74.95
2022-12-22T01:30:12.874Z,79.30
2022-12-22T01:32:58.300Z,62.83
2022-12-22T01:35:47.132Z,70.93
2022-12-22T01:38:33.215Z,83.03
2022-12-22T01:41:20.590Z,72.40
2022-12-22T01:44:05.905Z,80.25
2022-12-22T01:46:54.752Z,80.45
2022-12-22T01:49:54.326Z,63.22
2022-12-22T01:52:43.596Z,65.30
2022-12-22T01:55:33.835Z,79.50
2022-12-22T01:58:19.154Z,76.50
2022-12-22T02:01:05.521Z,77.75
2022-12-22T02:03:50.858Z,75.82
2022-12-22T02:07:00.489Z,68.63
2022-12-22T02:10:25.323Z,64.90
2022-12-22T02:13:31.559Z,77.68
2022-12-22T02:16:32.713Z,72.93
2022-12-22T02:19:33.332Z,70.43
2022-12-22T02:22:30.571Z,74.13
2022-12-22T02:25:48.175Z,87.72
2022-12-22T02:28:34.180Z,75.05
2022-12-22T02:31:19.610Z,69.07
2022-12-22T02:34:04.691Z,76.43
2022-12-22T02:36:59.463Z,72.72
2022-12-22T02:40:15.969Z,70.72
2022-12-22T02:43:06.883Z,68.22
2022-12-22T02:46:07.761Z,73.95
2022-12-22T02:49:16.471Z,71.25
2022-12-22T02:52:12.035Z,76.65
2022-12-22T02:54:58.172Z,67.70
2022-12-22T02:57:43.912Z,75.20
2022-12-22T03:00:29.697Z,64.38
2022-12-22T03:03:14.936Z,76.18
2022-12-22T03:06:00.185Z,78.03
2022-12-22T03:08:45.396Z,89.35
2022-12-22T03:11:30.782Z,74.70
2022-12-22T03:14:15.784Z,89.70
2022-12-22T03:17:01.178Z,73.20
2022-12-22T03:19:46.443Z,81.30
2022-12-22T03:22:31.715Z,81.82
2022-12-22T03:25:17.145Z,74.03
2022-12-22T03:27:43.665Z,62.80
2022-12-22T03:30:10.395Z,87.68
2022-12-22T03:32:36.954Z,69.15
2022-12-22T03:35:03.870Z,66.43
2022-12-22T03:37:30.386Z,67.03
2022-12-22T03:39:56.931Z,66.88
2022-12-22T03:42:42.011Z,78.10
2022-12-22T03:45:28.678Z,79.03
2022-12-22T03:47:55.241Z,70.55
2022-12-22T03:50:21.792Z,70.47
2022-12-22T03:52:48.418Z,73.10
2022-12-22T03:55:14.957Z,72.90
2022-12-22T03:57:41.547Z,72.45
2022-12-22T04:00:08.700Z,72.65
2022-12-22T04:02:35.275Z,75.40
2022-12-22T04:05:01.805Z,73.68
2022-12-22T04:07:28.396Z,83.72
2022-12-22T04:10:13.735Z,72.00
2022-12-22T04:12:55.571Z,67.70
2022-12-22T04:15:26.490Z,62.20
2022-12-22T04:17:53.535Z,75.32
2022-12-22T04:20:21.613Z,74.80
2022-12-22T04:22:48.630Z,73.50
2022-12-22T04:25:16.204Z,71.28
2022-12-22T04:27:42.816Z,73.63
2022-12-22T04:30:10.651Z,74.22
2022-12-22T04:32:37.531Z,82.88
2022-12-22T04:35:05.067Z,54.40
2022-12-22T04:37:31.673Z,68.60
2022-12-22T04:39:58.793Z,74.00
2022-12-22T04:42:25.294Z,70.82
2022-12-22T04:44:51.877Z,78.15
2022-12-22T04:47:18.648Z,76.35
2022-12-22T04:49:45.142Z,82.93
2022-12-22T04:52:11.655Z,67.15
2022-12-22T04:54:38.222Z,71.35
2022-12-22T04:57:04.818Z,79.22
2022-12-22T04:59:31.400Z,77.18
2022-12-22T05:01:58.595Z,76.82
2022-12-22T05:04:25.384Z,89.20
2022-12-22T05:06:51.967Z,70.93
2022-12-22T05:09:18.501Z,77.03
2022-12-22T05:11:45.031Z,62.78
2022-12-22T05:14:11.554Z,71.22
2022-12-22T05:16:38.097Z,79.72
2022-12-22T05:19:04.749Z,79.65
2022-12-22T05:21:31.321Z,83.22
2022-12-22T05:23:58.610Z,79.55
2022-12-22T05:26:25.269Z,68.80
2022-12-22T05:28:52.538Z,70.25
2022-12-22T05:31:24.717Z,56.42
2022-12-22T05:33:51.568Z,73.80
2022-12-22T05:36:18.403Z,73.07
2022-12-22T05:38:45.191Z,54.05
2022-12-22T05:41:11.950Z,66.20
2022-12-22T05:43:38.791Z,64.43
2022-12-22T05:46:09.080Z,66.90
2022-12-22T05:48:39.142Z,53.60
2022-12-22T05:51:08.122Z,62.05
2022-12-22T05:53:34.838Z,60.17
2022-12-22T05:56:01.448Z,57.08
2022-12-22T05:58:27.998Z,56.88
2022-12-22T06:00:59.224Z,66.53
2022-12-22T06:03:27.209Z,66.25
2022-12-22T06:05:54.588Z,52.55
2022-12-22T06:08:21.779Z,43.75
2022-12-22T06:10:48.378Z,44.13
2022-12-22T06:13:15.138Z,50.47
2022-12-22T06:15:42.102Z,42.28
2022-12-22T06:18:08.711Z,56.33
2022-12-22T06:20:35.311Z,49.08
2022-12-22T06:23:01.875Z,53.15
2022-12-22T06:25:28.523Z,61.42
2022-12-22T06:27:55.078Z,46.78
2022-12-22T06:30:25.761Z,60.55
2022-12-22T06:32:55.909Z,56.45
2022-12-22T06:35:22.459Z,49.97
2022-12-22T06:37:48.978Z,53.20
2022-12-22T06:40:15.585Z,48.38
2022-12-22T06:43:08.086Z,47.72
2022-12-22T06:45:37.357Z,44.83
2022-12-22T06:48:04.668Z,47.95
2022-12-22T06:50:31.339Z,47.22
2022-12-22T06:52:57.901Z,39.22
2022-12-22T06:55:24.508Z,53.85
2022-12-22T06:57:51.273Z,50.55
2022-12-22T07:00:18.205Z,45.88
2022-12-22T07:02:45.249Z,54.28
2022-12-22T07:05:11.932Z,41.88
2022-12-22T07:07:38.557Z,52.95
2022-12-22T07:10:05.651Z,47.08
2022-12-22T07:12:32.233Z,51.58
2022-12-22T07:14:58.783Z,51.78
2022-12-22T07:17:25.354Z,47.13
2022-12-22T07:19:52.022Z,51.78
2022-12-22T07:22:21.628Z,51.88
2022-12-22T07:24:51.288Z,48.30
2022-12-22T07:27:17.896Z,50.35
2022-12-22T07:29:44.709Z,54.55
2022-12-22T07:32:11.251Z,48.63
2022-12-22T07:34:37.820Z,52.35
2022-12-22T07:37:04.419Z,50.45
2022-12-22T07:39:31.121Z,54.80
2022-12-22T07:42:16.623Z,66.78
2022-12-22T07:44:43.212Z,66.18
2022-12-22T07:47:09.714Z,53.20
2022-12-22T07:49:55.062Z,54.15
2022-12-22T07:52:21.638Z,60.05
2022-12-22T07:54:48.196Z,59.00
2022-12-22T07:57:14.793Z,64.72
2022-12-22T07:59:41.415Z,55.22
2022-12-22T08:02:11.685Z,45.22
2022-12-22T08:04:38.646Z,55.33
2022-12-22T08:07:05.155Z,62.13
2022-12-22T08:09:31.769Z,59.08
2022-12-22T08:11:58.422Z,53.92
2022-12-22T08:14:24.995Z,51.70
2022-12-22T08:16:51.570Z,54.78
2022-12-22T08:19:18.181Z,47.75
2022-12-22T08:21:52.177Z,56.33
2022-12-22T08:24:19.726Z,46.13
2022-12-22T08:26:49.016Z,51.67
2022-12-22T08:29:25.510Z,58.08
2022-12-22T08:31:52.220Z,49.80
2022-12-22T08:34:18.804Z,45.72
2022-12-22T08:36:52.483Z,40.20
2022-12-22T08:39:20.873Z,52.65
2022-12-22T08:41:50.191Z,54.88
2022-12-22T08:44:27.811Z,51.60
2022-12-22T08:46:56.957Z,48.55
2022-12-22T08:49:24.020Z,48.15
2022-12-22T08:51:51.217Z,52.42
2022-12-22T08:54:18.094Z,62.75
2022-12-22T08:56:44.950Z,60.25
2022-12-22T08:59:12.644Z,55.75
2022-12-22T09:01:44.726Z,54.75
2022-12-22T09:04:16.424Z,54.47
2022-12-22T09:06:42.956Z,52.30
2022-12-22T09:09:12.094Z,61.97
2022-12-22T09:14:07.512Z,48.55
2022-12-22T09:16:35.556Z,50.60
2022-12-22T09:19:02.277Z,62.40
2022-12-22T09:21:29.902Z,48.25
2022-12-22T09:23:57.156Z,51.10
2022-12-22T09:26:25.661Z,51.42
2022-12-22T09:28:52.589Z,51.28
2022-12-22T09:31:20.654Z,65.50
2022-12-22T09:33:47.699Z,47.40
2022-12-22T09:36:17.580Z,52.75
2022-12-22T09:38:44.197Z,50.72
2022-12-22T09:41:18.698Z,43.03
2022-12-22T09:43:46.089Z,45.90
2022-12-22T09:46:24.191Z,48.67
2022-12-22T09:48:52.332Z,46.67
2022-12-22T09:51:26.115Z,53.67
2022-12-22T09:54:01.107Z,36.83
2022-12-22T09:56:30.467Z,37.05
2022-12-22T09:58:58.315Z,35.78
2022-12-22T10:01:37.241Z,46.67
2022-12-22T10:04:34.839Z,43.75
2022-12-22T10:07:10.277Z,43.35
2022-12-22T10:09:52.672Z,41.17
2022-12-22T10:12:23.507Z,44.40
2022-12-22T10:14:51.858Z,37.17
2022-12-22T10:17:21.538Z,41.67
2022-12-22T10:19:50.676Z,47.00
2022-12-22T10:22:34.996Z,40.80
2022-12-22T10:25:03.672Z,40.72
2022-12-22T10:27:33.567Z,36.78
2022-12-22T10:30:20.165Z,40.60
2022-12-22T10:33:10.935Z,36.92
2022-12-22T10:35:58.065Z,40.63
2022-12-22T10:38:31.692Z,35.03
2022-12-22T10:41:14.558Z,39.03
2022-12-22T10:43:49.355Z,31.30
2022-12-22T10:46:16.669Z,40.20
2022-12-22T10:48:43.273Z,37.42
2022-12-22T10:51:13.380Z,42.58
2022-12-22T10:53:50.121Z,42.17
2022-12-22T10:56:36.911Z,43.75
2022-12-22T10:59:03.984Z,34.15
2022-12-22T11:01:30.666Z,32.97
2022-12-22T11:03:58.718Z,41.90
2022-12-22T11:06:25.427Z,40.08
2022-12-22T11:08:52.195Z,41.47
2022-12-22T11:11:40.131Z,44.35
2022-12-22T11:14:40.884Z,41.35
2022-12-22T11:17:26.278Z,39.03
2022-12-22T11:19:55.387Z,43.95
2022-12-22T11:22:44.732Z,38.88
2022-12-22T11:25:40.510Z,43.25
2022-12-22T11:28:45.234Z,32.70
2022-12-22T11:31:30.206Z,46.35
2022-12-22T11:34:20.793Z,39.80
2022-12-22T11:36:59.509Z,47.83
2022-12-22T11:39:44.342Z,47.92
2022-12-22T11:42:29.936Z,44.55
2022-12-22T11:45:03.065Z,48.90
2022-12-22T11:47:29.556Z,52.78
2022-12-22T11:49:56.026Z,45.33
2022-12-22T11:53:16.765Z,45.65
2022-12-22T11:55:50.518Z,44.10
2022-12-22T11:58:52.827Z,44.40
2022-12-22T12:01:31.387Z,49.80
2022-12-22T12:04:24.917Z,52.55
2022-12-22T12:06:57.254Z,49.05
2022-12-22T12:09:50.150Z,47.20
2022-12-22T12:12:31.661Z,39.70
2022-12-22T12:15:21.129Z,52.67
2022-12-22T12:18:12.273Z,43.05
2022-12-22T12:21:11.196Z,45.53
2022-12-22T12:23:56.454Z,46.75
2022-12-22T12:26:32.179Z,53.08
2022-12-22T12:29:01.382Z,42.35
2022-12-22T12:31:35.501Z,55.15
2022-12-22T12:34:03.690Z,49.03
2022-12-22T12:36:58.549Z,47.33
2022-12-22T12:40:03.432Z,57.65
2022-12-22T12:42:39.316Z,47.90
2022-12-22T12:45:38.295Z,58.30
2022-12-22T12:48:23.465Z,50.90
2022-12-22T12:50:53.979Z,51.95
2022-12-22T12:53:23.195Z,37.88
2022-12-22T12:58:40.679Z,54.20
2022-12-22T13:01:11.679Z,46.75
2022-12-22T13:06:52.093Z,43.63
2022-12-22T13:12:40.045Z,46.45
2022-12-22T13:15:36.890Z,55.67
2022-12-22T13:18:09.663Z,53.33
2022-12-22T13:20:37.417Z,44.22
2022-12-22T13:23:12.368Z,44.13
2022-12-22T13:25:48.679Z,45.15
2022-12-22T13:28:17.315Z,42.72
2022-12-22T13:31:06.296Z,52.88
2022-12-22T13:33:41.158Z,44.63
2022-12-22T13:36:18.558Z,44.22
2022-12-22T13:38:45.404Z,48.88
2022-12-22T13:41:26.769Z,49.08
2022-12-22T13:43:57.304Z,48.25
2022-12-22T13:46:25.560Z,56.58
2022-12-22T13:48:55.509Z,45.88
2022-12-22T13:51:28.586Z,55.65
2022-12-22T13:54:09.325Z,50.80
2022-12-22T13:56:41.307Z,56.13
2022-12-22T13:59:25.741Z,63.22
2022-12-22T14:01:57.917Z,60.38
2022-12-22T14:04:24.846Z,46.72
2022-12-22T14:06:51.515Z,53.92
2022-12-22T14:09:22.348Z,56.38
2022-12-22T14:12:10.739Z,47.42
2022-12-22T14:14:42.762Z,53.80
2022-12-22T14:17:21.101Z,58.30
2022-12-22T14:19:51.174Z,54.60
2022-12-22T14:22:22.812Z,49.22
2022-12-22T14:24:54.561Z,45.90
2022-12-22T14:27:33.115Z,57.72
2022-12-22T14:30:02.912Z,59.67
2022-12-22T14:32:54.629Z,62.83
2022-12-22T14:35:22.193Z,54.28
2022-12-22T14:37:53.572Z,57.72
2022-12-22T14:40:40.741Z,64.68
2022-12-22T14:43:16.373Z,60.03
2022-12-22T14:45:43.709Z,62.80
2022-12-22T14:48:19.461Z,60.67
2022-12-22T14:50:51.586Z,59.72
2022-12-22T14:53:27.056Z,61.15
2022-12-22T14:55:54.174Z,85.28
2022-12-22T14:58:32.594Z,63.08
2022-12-22T15:01:14.911Z,60.97
2022-12-22T15:03:43.006Z,58.03
2022-12-22T15:06:27.765Z,62.92
2022-12-22T15:09:09.035Z,63.08
2022-12-22T15:11:37.503Z,68.93
2022-12-22T15:14:05.026Z,51.08
2022-12-22T15:16:31.655Z,73.13
2022-12-22T15:18:58.407Z,63.35
2022-12-22T15:21:24.930Z,57.20
2022-12-22T15:23:51.433Z,60.25
2022-12-22T15:26:18.105Z,60.97
2022-12-22T15:28:44.787Z,69.47
2022-12-22T15:31:16.488Z,56.20
2022-12-22T15:33:44.498Z,65.93
2022-12-22T15:36:13.078Z,65.80
2022-12-22T15:38:40.876Z,71.57
2022-12-22T15:41:08.136Z,64.68
2022-12-22T15:46:22.608Z,66.57
2022-12-22T15:48:49.429Z,63.45
2022-12-22T15:51:22.524Z,63.13
2022-12-22T15:53:49.387Z,61.25
2022-12-22T15:56:20.340Z,66.97
2022-12-22T15:58:47.255Z,76.97
2022-12-22T16:01:13.896Z,76.88
2022-12-22T16:03:40.572Z,53.15
2022-12-22T16:06:13.780Z,66.03
2022-12-22T16:08:42.757Z,69.63
2022-12-22T16:11:09.561Z,70.57
2022-12-22T16:13:37.811Z,56.85
2022-12-22T16:16:05.146Z,70.63
2022-12-22T16:18:32.689Z,59.38
2022-12-22T16:21:07.968Z,60.28
2022-12-22T16:23:36.479Z,63.33
2022-12-22T16:26:04.853Z,63.42
2022-12-22T16:28:33.160Z,66.78
2022-12-22T16:31:01.075Z,77.78
2022-12-22T16:33:28.070Z,61.55
2022-12-22T16:35:54.647Z,61.13
2022-12-22T16:38:21.288Z,69.05
2022-12-22T16:40:50.749Z,126.82
2022-12-22T16:43:48.909Z,127.20
2022-12-22T16:46:18.743Z,71.05
2022-12-22T16:48:53.072Z,73.57
2022-12-22T16:51:26.154Z,57.85
2022-12-22T16:53:52.755Z,62.13
2022-12-22T16:56:22.584Z,69.10
2022-12-22T16:58:49.685Z,69.75
2022-12-22T17:01:28.267Z,77.22
2022-12-22T17:03:56.380Z,75.50
2022-12-22T17:06:23.217Z,61.63
2022-12-22T17:08:50.064Z,68.30
2022-12-22T17:11:25.179Z,74.43
2022-12-22T17:13:54.306Z,59.55
2022-12-22T17:18:49.513Z,53.17
2022-12-22T17:21:19.016Z,57.78
2022-12-22T17:23:52.195Z,97.55
2022-12-22T17:26:23.977Z,61.80
2022-12-22T17:28:51.255Z,64.15
2022-12-22T17:31:21.346Z,65.88
2022-12-22T17:33:48.649Z,62.58
2022-12-22T17:36:34.542Z,65.57
2022-12-22T17:39:02.319Z,60.17
2022-12-22T17:41:29.511Z,53.30
2022-12-22T17:43:56.206Z,51.40
2022-12-22T17:46:23.473Z,72.60
2022-12-22T17:48:50.582Z,62.63
2022-12-22T17:51:21.625Z,58.92
2022-12-22T17:53:48.709Z,58.72
2022-12-22T17:56:19.400Z,65.22
2022-12-22T17:58:46.693Z,61.80
2022-12-22T18:01:25.333Z,67.45
2022-12-22T18:03:52.491Z,61.42
2022-12-22T18:06:21.963Z,68.40
2022-12-22T18:08:49.296Z,65.45
2022-12-22T18:11:16.811Z,56.22
2022-12-22T18:13:43.556Z,53.95
2022-12-22T18:16:15.775Z,57.05
2022-12-22T18:18:43.724Z,66.75
2022-12-22T18:21:29.237Z,63.97
2022-12-22T18:23:55.840Z,63.15
2022-12-22T18:26:25.816Z,64.55
2022-12-22T18:28:54.272Z,70.75
2022-12-22T18:31:21.970Z,68.93
2022-12-22T18:33:48.794Z,68.10
2022-12-22T18:36:17.182Z,57.88
2022-12-22T18:38:47.502Z,67.28
2022-12-22T18:41:20.614Z,65.47
2022-12-22T18:43:47.494Z,67.38
2022-12-22T18:46:14.333Z,73.82
2022-12-22T18:48:41.167Z,67.80
2022-12-22T18:51:22.290Z,68.45
2022-12-22T18:53:53.685Z,68.90
2022-12-22T18:56:20.699Z,53.83
2022-12-22T18:58:47.330Z,68.35
2022-12-22T19:01:23.168Z,63.10
2022-12-22T19:03:52.513Z,57.40
2022-12-22T19:06:21.141Z,67.32
2022-12-22T19:08:48.965Z,54.35
2022-12-22T19:11:18.240Z,66.07
2022-12-22T19:13:47.348Z,58.75
2022-12-22T19:18:42.980Z,57.67
2022-12-22T19:21:13.217Z,56.38
2022-12-22T19:23:39.985Z,66.45
2022-12-22T19:26:09.084Z,63.25
2022-12-22T19:28:44.367Z,61.55
2022-12-22T19:31:21.897Z,65.18
2022-12-22T19:33:49.531Z,59.95
2022-12-22T19:36:19.502Z,57.25
2022-12-22T19:38:51.082Z,60.00
2022-12-22T19:41:55.427Z,55.55
2022-12-22T19:44:27.867Z,61.45
2022-12-22T19:46:56.143Z,50.13
2022-12-22T19:49:24.840Z,54.17
2022-12-22T19:51:51.579Z,53.20
2022-12-22T19:54:19.644Z,59.30
2022-12-22T19:56:53.253Z,60.93
2022-12-22T19:59:35.630Z,52.55
2022-12-22T20:02:33.311Z,51.38
2022-12-22T20:05:00.871Z,55.67
2022-12-22T20:07:29.652Z,67.60
2022-12-22T20:09:56.297Z,55.33
2022-12-22T20:12:30.350Z,63.13
2022-12-22T20:14:57.304Z,58.22
2022-12-22T20:17:24.016Z,57.05
2022-12-22T20:19:50.543Z,58.90
2022-12-22T20:22:18.489Z,59.75
2022-12-22T20:24:47.228Z,59.80
2022-12-22T20:27:22.179Z,62.35
2022-12-22T20:29:48.966Z,56.08
2022-12-22T20:32:17.113Z,60.42
2022-12-22T20:34:45.189Z,63.17
2022-12-22T20:37:16.959Z,68.45
2022-12-22T20:39:44.498Z,54.85
2022-12-22T20:42:29.210Z,51.40
2022-12-22T20:45:02.317Z,56.35
2022-12-22T20:47:31.774Z,77.05
2022-12-22T20:49:58.310Z,60.45
2022-12-22T20:52:26.340Z,56.38
2022-12-22T20:54:52.901Z,53.17
2022-12-22T20:57:21.493Z,54.90
2022-12-22T20:59:53.994Z,77.95
2022-12-22T21:02:24.706Z,73.53
2022-12-22T21:04:51.324Z,68.93
2022-12-22T21:07:17.831Z,56.90
2022-12-22T21:09:44.344Z,64.35
2022-12-22T21:12:11.035Z,55.95
2022-12-22T21:14:37.602Z,54.00
2022-12-22T21:17:04.488Z,50.55
2022-12-22T21:19:31.125Z,51.42
2022-12-22T21:21:57.654Z,57.00
2022-12-22T21:24:24.272Z,55.63
2022-12-22T21:26:53.141Z,54.97
2022-12-22T21:29:23.589Z,50.90
2022-12-22T21:31:50.466Z,46.65
2022-12-22T21:34:17.246Z,61.35
2022-12-22T21:36:46.077Z,62.35
2022-12-22T21:39:25.532Z,67.25
2022-12-22T21:42:01.295Z,65.43
2022-12-22T21:44:30.781Z,56.00
2022-12-22T21:46:57.851Z,49.22
2022-12-22T21:49:28.473Z,49.20
2022-12-22T21:51:55.559Z,56.42
2022-12-22T21:54:23.607Z,58.25
2022-12-22T21:56:51.958Z,60.10
2022-12-22T21:59:18.575Z,67.18
2022-12-22T22:01:45.552Z,65.60
2022-12-22T22:04:12.973Z,68.25
2022-12-22T22:06:39.814Z,52.35
2022-12-22T22:09:07.241Z,57.03
2022-12-22T22:11:54.319Z,63.65
2022-12-22T22:14:21.493Z,64.20
2022-12-22T22:16:48.534Z,62.03
2022-12-22T22:19:15.419Z,62.58
2022-12-22T22:21:42.272Z,61.35
2022-12-22T22:24:08.858Z,55.58
2022-12-22T22:26:35.448Z,62.10
2022-12-22T22:29:01.961Z,61.78
2022-12-22T23:53:38.510Z,62.55
2022-12-22T23:56:05.663Z,68.45
2022-12-22T23:58:32.487Z,61.20
